ADDS METAR Data INFO
IDs: Format: Raw Decoded Include TAF

Data at: 0211 UTC 14 Dec 2017

KPAN 140155Z AUTO 14004KT 10SM CLR 10/M20 A3005 RMK AO2
KPAN 140135Z AUTO 15004KT 10SM CLR 10/M19 A3005 RMK AO2
KPAN 140115Z AUTO 14004KT 10SM CLR 10/M19 A3005 RMK AO2
KPAN 140055Z AUTO 15005KT 10SM CLR 10/M19 A3005 RMK AO2
KPAN 140035Z AUTO 00000KT 10SM CLR 10/M19 A3005 RMK AO2
KPAN 140015Z AUTO 18004KT 10SM CLR 12/M20 A3005 RMK AO2
KPAN 132355Z AUTO 17004KT 10SM CLR 14/M20 A3006 RMK AO2
KPAN 132335Z AUTO 19004KT 10SM CLR 15/M20 A3006 RMK AO2
KPAN 132315Z AUTO 20005KT 10SM CLR 15/M20 A3006 RMK AO2
KPAN 132255Z AUTO 22005KT 10SM CLR 16/M20 A3006 RMK AO2
KPAN 132235Z AUTO VRB03KT 10SM CLR 16/M20 A3006 RMK AO2
KPAN 132215Z AUTO 21006KT 10SM CLR 16/M20 A3007 RMK AO2
KPAN 132155Z AUTO 21004KT 10SM CLR 16/M20 A3007 RMK AO2
KPAN 132135Z AUTO 22006KT 10SM CLR 16/M20 A3007 RMK AO2
KPAN 132115Z AUTO 20006KT 10SM CLR 16/M20 A3007 RMK AO2
KPAN 132055Z AUTO 21006KT 10SM CLR 16/M20 A3008 RMK AO2
KPAN 132035Z AUTO 21008KT 10SM CLR 16/M20 A3008 RMK AO2
KPAN 132015Z AUTO 22007KT 10SM CLR 16/M21 A3009 RMK AO2
KPAN 131955Z AUTO 22006KT 10SM CLR 16/M20 A3010 RMK AO2
KPAN 131935Z AUTO 22008KT 10SM CLR 16/M20 A3011 RMK AO2
KPAN 131915Z AUTO VRB06KT 10SM CLR 16/M20 A3012 RMK AO2
KPAN 131855Z AUTO 22005KT 10SM CLR 16/M20 A3013 RMK AO2
KPAN 131835Z AUTO 23003KT 10SM CLR 16/M20 A3015 RMK AO2
KPAN 131815Z AUTO 00000KT 10SM CLR 15/M21 A3016 RMK AO2
KPAN 131755Z AUTO 00000KT 10SM CLR 15/M21 A3017 RMK AO2
KPAN 131735Z AUTO 20004KT 10SM CLR 14/M21 A3017 RMK AO2
KPAN 131715Z AUTO 00000KT 10SM CLR 13/M21 A3018 RMK AO2
KPAN 131655Z AUTO 00000KT 10SM CLR 12/M21 A3018 RMK AO2
KPAN 131635Z AUTO 18003KT 10SM CLR 12/M21 A3018 RMK AO2
KPAN 131615Z AUTO 00000KT 10SM CLR 11/M21 A3017 RMK AO2
KPAN 131555Z AUTO 00000KT 10SM CLR 10/M21 A3018 RMK AO2
KPAN 131535Z AUTO 00000KT 10SM CLR 08/M20 A3018 RMK AO2
KPAN 131515Z AUTO 10003KT 10SM CLR 07/M21 A3017 RMK AO2
KPAN 131455Z AUTO 13004KT 10SM CLR 07/M21 A3018 RMK AO2
KPAN 131435Z AUTO 00000KT 10SM CLR 05/M21 A3018 RMK AO2
KPAN 131415Z AUTO 00000KT 10SM CLR 05/M21 A3018 RMK AO2
KPAN 131355Z AUTO 04004KT 10SM CLR 05/M20 A3018 RMK AO2
KPAN 131335Z AUTO 03005KT 10SM CLR 05/M21 A3018 RMK AO2
KPAN 131315Z AUTO 00000KT 10SM CLR 04/M22 A3018 RMK AO2
KPAN 131255Z AUTO 04003KT 10SM CLR 03/M22 A3018 RMK AO2
KPAN 131235Z AUTO 00000KT 10SM CLR 04/M22 A3018 RMK AO2
KPAN 131215Z AUTO 00000KT 10SM CLR 04/M22 A3018 RMK AO2
KPAN 131155Z AUTO 04005KT 10SM CLR 04/M22 A3018 RMK AO2
KPAN 131135Z AUTO 35003KT 10SM CLR 02/M22 A3018 RMK AO2
KPAN 131115Z AUTO 00000KT 10SM CLR 02/M22 A3019 RMK AO2
KPAN 131055Z AUTO 34004KT 10SM CLR 04/M22 A3019 RMK AO2
KPAN 131035Z AUTO 08005KT 10SM CLR 05/M21 A3020 RMK AO2
KPAN 131015Z AUTO 05004KT 10SM CLR 05/M22 A3020 RMK AO2
KPAN 130955Z AUTO 10004KT 10SM CLR 07/M21 A3019 RMK AO2
KPAN 130935Z AUTO VRB03KT 10SM CLR 08/M21 A3019 RMK AO2
KPAN 130915Z AUTO VRB05KT 10SM CLR 08/M21 A3019 RMK AO2
KPAN 130855Z AUTO 10005KT 10SM CLR 08/M22 A3020 RMK AO2
KPAN 130835Z AUTO 11004KT 10SM CLR 08/M21 A3020 RMK AO2
KPAN 130815Z AUTO 00000KT 10SM CLR 04/M21 A3021 RMK AO2
KPAN 130755Z AUTO 00000KT 10SM CLR 04/M22 A3021 RMK AO2
KPAN 130735Z AUTO 10004KT 10SM CLR 08/M22 A3022 RMK AO2
KPAN 130715Z AUTO 08004KT 10SM CLR 07/M21 A3023 RMK AO2
KPAN 130655Z AUTO 00000KT 10SM CLR 05/M21 A3023 RMK AO2
KPAN 130635Z AUTO 00000KT 10SM CLR 06/M22 A3023 RMK AO2
KPAN 130615Z AUTO 00000KT 10SM CLR 06/M21 A3024 RMK AO2
KPAN 130555Z AUTO 00000KT 10SM CLR 05/M20 A3025 RMK AO2
KPAN 130535Z AUTO 00000KT 10SM CLR 07/M21 A3025 RMK AO2
KPAN 130515Z AUTO 00000KT 10SM CLR 06/M20 A3025 RMK AO2
KPAN 130455Z AUTO 06003KT 10SM CLR 07/M20 A3025 RMK AO2
KPAN 130435Z AUTO 00000KT 10SM CLR 09/M20 A3025 RMK AO2
KPAN 130415Z AUTO 00000KT 10SM CLR 06/M20 A3025 RMK AO2
KPAN 130355Z AUTO 08005KT 10SM CLR 09/M20 A3025 RMK AO2
KPAN 130335Z AUTO 00000KT 10SM CLR 08/M19 A3025 RMK AO2
KPAN 130315Z AUTO 05004KT 10SM CLR 08/M19 A3025 RMK AO2
KPAN 130255Z AUTO 05005KT 10SM CLR 09/M18 A3026 RMK AO2
KPAN 130235Z AUTO 07004KT 10SM CLR 09/M18 A3026 RMK AO2
KPAN 130215Z AUTO 09004KT 10SM CLR 08/M18 A3026 RMK AO2
KPAN 130155Z AUTO 00000KT 10SM CLR 07/M18 A3026 RMK AO2
KPAN 130135Z AUTO 00000KT 10SM CLR 08/M18 A3026 RMK AO2
KPAN 130115Z AUTO 13003KT 10SM CLR 09/M18 A3026 RMK AO2
KPAN 130055Z AUTO 14004KT 10SM CLR 10/M18 A3026 RMK AO2
KPAN 130035Z AUTO 16003KT 10SM CLR 10/M19 A3026 RMK AO2
KPAN 130015Z AUTO 19004KT 10SM CLR 10/M19 A3026 RMK AO2
KPAN 122355Z AUTO 19004KT 10SM CLR 12/M19 A3026 RMK AO2
KPAN 122335Z AUTO 20003KT 10SM CLR 14/M20 A3026 RMK AO2
KPAN 122315Z AUTO 00000KT 10SM CLR 15/M20 A3026 RMK AO2
KPAN 122255Z AUTO 23005KT 10SM CLR 15/M20 A3027 RMK AO2
KPAN 122235Z AUTO VRB04KT 10SM CLR 15/M20 A3027 RMK AO2
KPAN 122215Z AUTO 20006KT 10SM CLR 15/M20 A3027 RMK AO2
KPAN 122155Z AUTO 22007KT 10SM CLR 16/M21 A3027 RMK AO2
KPAN 122135Z AUTO 16006KT 10SM CLR 16/M22 A3028 RMK AO2
KPAN 122115Z AUTO VRB05G11KT 10SM CLR 16/M22 A3028 RMK AO2
KPAN 122055Z AUTO VRB06KT 10SM CLR 16/M22 A3029 RMK AO2
KPAN 122035Z AUTO 18007KT 10SM CLR 16/M22 A3030 RMK AO2
KPAN 122015Z AUTO 17008KT 10SM CLR 17/M23 A3031 RMK AO2
KPAN 121955Z AUTO 17007KT 130V200 10SM CLR 17/M24 A3032 RMK AO2
KPAN 121935Z AUTO 14006G15KT 10SM CLR 17/M24 A3033 RMK AO2
KPAN 121915Z AUTO VRB07G13KT 090V190 10SM CLR 17/M23 A3034 RMK AO2
KPAN 121855Z AUTO VRB07KT 10SM CLR 17/M23 A3036 RMK AO2
KPAN 121835Z AUTO VRB06KT 140V220 10SM CLR 16/M23 A3037 RMK AO2
KPAN 121815Z AUTO 13007G14KT 090V180 10SM CLR 16/M22 A3038 RMK AO2
KPAN 121755Z AUTO 10007KT 060V140 10SM CLR 16/M22 A3040 RMK AO2
KPAN 121735Z AUTO VRB03KT 10SM CLR 15/M21 A3040 RMK AO2
KPAN 121715Z AUTO VRB04KT 10SM CLR 14/M20 A3041 RMK AO2
KPAN 121655Z AUTO 00000KT 10SM CLR 13/M20 A3040 RMK AO2
KPAN 121635Z AUTO 00000KT 10SM CLR 12/M20 A3040 RMK AO2
KPAN 121615Z AUTO 00000KT 10SM CLR 11/M21 A3040 RMK AO2
KPAN 121555Z AUTO 00000KT 10SM CLR 11/M21 A3039 RMK AO2
KPAN 121535Z AUTO 00000KT 10SM CLR 09/M20 A3039 RMK AO2
KPAN 121515Z AUTO 00000KT 10SM CLR 07/M21 A3039 RMK AO2
KPAN 121435Z AUTO 06004KT 10SM CLR 07/M21 A3038 RMK AO2
KPAN 121415Z AUTO 05005KT 10SM CLR 07/M21 A3038 RMK AO2